sensor_id;sensor_type;location;lat;lon;timestamp;P1;durP1;ratioP1;P2;durP2;ratioP2
81834;SDS011;71272;52.166;4.498;2023-11-21T00:00:26;11.50;;;5.13;;
81834;SDS011;71272;52.166;4.498;2023-11-21T00:02:52;15.43;;;5.27;;
81834;SDS011;71272;52.166;4.498;2023-11-21T00:05:17;17.00;;;5.37;;
81834;SDS011;71272;52.166;4.498;2023-11-21T00:07:42;13.33;;;5.53;;
81834;SDS011;71272;52.166;4.498;2023-11-21T00:10:08;14.38;;;5.22;;
81834;SDS011;71272;52.166;4.498;2023-11-21T00:12:34;16.77;;;6.22;;
81834;SDS011;71272;52.166;4.498;2023-11-21T00:14:59;18.23;;;7.30;;
81834;SDS011;71272;52.166;4.498;2023-11-21T00:17:24;15.60;;;6.30;;
81834;SDS011;71272;52.166;4.498;2023-11-21T00:19:50;13.53;;;6.23;;
81834;SDS011;71272;52.166;4.498;2023-11-21T00:24:42;14.73;;;6.25;;
81834;SDS011;71272;52.166;4.498;2023-11-21T00:27:07;12.17;;;5.70;;
81834;SDS011;71272;52.166;4.498;2023-11-21T00:29:32;16.80;;;6.60;;
81834;SDS011;71272;52.166;4.498;2023-11-21T00:31:57;13.00;;;6.33;;
81834;SDS011;71272;52.166;4.498;2023-11-21T00:34:25;22.70;;;7.73;;
81834;SDS011;71272;52.166;4.498;2023-11-21T00:36:51;14.20;;;6.15;;
81834;SDS011;71272;52.166;4.498;2023-11-21T00:39:16;12.43;;;5.40;;
81834;SDS011;71272;52.166;4.498;2023-11-21T00:41:41;13.80;;;6.23;;
81834;SDS011;71272;52.166;4.498;2023-11-21T00:44:07;9.98;;;5.47;;
81834;SDS011;71272;52.166;4.498;2023-11-21T00:46:32;15.40;;;5.90;;
81834;SDS011;71272;52.166;4.498;2023-11-21T00:48:57;14.10;;;6.53;;
81834;SDS011;71272;52.166;4.498;2023-11-21T00:51:22;11.93;;;6.37;;
81834;SDS011;71272;52.166;4.498;2023-11-21T00:53:47;17.13;;;5.93;;
81834;SDS011;71272;52.166;4.498;2023-11-21T00:56:13;14.93;;;5.60;;
81834;SDS011;71272;52.166;4.498;2023-11-21T00:58:38;19.00;;;6.60;;
81834;SDS011;71272;52.166;4.498;2023-11-21T01:01:03;13.55;;;5.78;;
81834;SDS011;71272;52.166;4.498;2023-11-21T01:03:29;14.83;;;5.63;;
81834;SDS011;71272;52.166;4.498;2023-11-21T01:05:54;14.13;;;5.97;;
81834;SDS011;71272;52.166;4.498;2023-11-21T01:08:19;10.43;;;5.23;;
81834;SDS011;71272;52.166;4.498;2023-11-21T01:10:45;17.33;;;5.82;;
81834;SDS011;71272;52.166;4.498;2023-11-21T01:13:10;17.83;;;5.40;;
81834;SDS011;71272;52.166;4.498;2023-11-21T01:15:35;10.17;;;5.17;;
81834;SDS011;71272;52.166;4.498;2023-11-21T01:18:01;12.43;;;6.07;;
81834;SDS011;71272;52.166;4.498;2023-11-21T01:20:26;16.10;;;5.43;;
81834;SDS011;71272;52.166;4.498;2023-11-21T01:22:51;9.93;;;5.13;;
81834;SDS011;71272;52.166;4.498;2023-11-21T01:25:16;16.10;;;4.53;;
81834;SDS011;71272;52.166;4.498;2023-11-21T01:27:42;16.15;;;4.38;;
81834;SDS011;71272;52.166;4.498;2023-11-21T01:30:08;9.48;;;4.25;;
81834;SDS011;71272;52.166;4.498;2023-11-21T01:35:00;8.48;;;3.42;;
81834;SDS011;71272;52.166;4.498;2023-11-21T01:37:25;8.20;;;3.53;;
81834;SDS011;71272;52.166;4.498;2023-11-21T01:42:17;11.80;;;4.03;;
81834;SDS011;71272;52.166;4.498;2023-11-21T01:44:43;11.13;;;4.25;;
81834;SDS011;71272;52.166;4.498;2023-11-21T01:47:08;12.83;;;3.80;;
81834;SDS011;71272;52.166;4.498;2023-11-21T01:49:34;12.02;;;4.60;;
81834;SDS011;71272;52.166;4.498;2023-11-21T01:51:59;10.20;;;4.38;;
81834;SDS011;71272;52.166;4.498;2023-11-21T01:54:25;14.73;;;4.10;;
81834;SDS011;71272;52.166;4.498;2023-11-21T01:56:50;9.80;;;3.35;;
81834;SDS011;71272;52.166;4.498;2023-11-21T01:59:18;9.33;;;3.30;;
81834;SDS011;71272;52.166;4.498;2023-11-21T02:01:43;9.02;;;3.88;;
81834;SDS011;71272;52.166;4.498;2023-11-21T02:04:08;11.05;;;4.47;;
81834;SDS011;71272;52.166;4.498;2023-11-21T02:06:34;11.65;;;3.80;;
81834;SDS011;71272;52.166;4.498;2023-11-21T02:09:00;10.27;;;3.83;;
81834;SDS011;71272;52.166;4.498;2023-11-21T02:11:25;11.57;;;3.40;;
81834;SDS011;71272;52.166;4.498;2023-11-21T02:13:50;6.97;;;3.25;;
81834;SDS011;71272;52.166;4.498;2023-11-21T02:16:18;8.95;;;4.05;;
81834;SDS011;71272;52.166;4.498;2023-11-21T02:18:45;11.90;;;4.22;;
81834;SDS011;71272;52.166;4.498;2023-11-21T02:21:12;10.05;;;3.00;;
81834;SDS011;71272;52.166;4.498;2023-11-21T02:23:37;14.63;;;3.28;;
81834;SDS011;71272;52.166;4.498;2023-11-21T02:26:07;6.38;;;2.58;;
81834;SDS011;71272;52.166;4.498;2023-11-21T02:28:32;6.37;;;2.53;;
81834;SDS011;71272;52.166;4.498;2023-11-21T02:30:58;12.07;;;2.63;;
81834;SDS011;71272;52.166;4.498;2023-11-21T02:33:24;5.68;;;2.03;;
81834;SDS011;71272;52.166;4.498;2023-11-21T02:35:49;7.57;;;2.60;;
81834;SDS011;71272;52.166;4.498;2023-11-21T02:38:16;6.70;;;2.03;;
81834;SDS011;71272;52.166;4.498;2023-11-21T02:40:42;6.70;;;1.67;;
81834;SDS011;71272;52.166;4.498;2023-11-21T02:43:07;4.90;;;2.13;;
81834;SDS011;71272;52.166;4.498;2023-11-21T02:45:32;5.17;;;1.77;;
81834;SDS011;71272;52.166;4.498;2023-11-21T02:47:58;4.30;;;1.87;;
81834;SDS011;71272;52.166;4.498;2023-11-21T02:50:23;6.88;;;1.70;;
81834;SDS011;71272;52.166;4.498;2023-11-21T02:52:48;3.55;;;1.50;;
81834;SDS011;71272;52.166;4.498;2023-11-21T02:55:14;5.87;;;1.67;;
81834;SDS011;71272;52.166;4.498;2023-11-21T02:57:39;3.10;;;1.53;;
81834;SDS011;71272;52.166;4.498;2023-11-21T03:00:04;6.87;;;2.17;;
81834;SDS011;71272;52.166;4.498;2023-11-21T03:02:32;3.58;;;1.90;;
81834;SDS011;71272;52.166;4.498;2023-11-21T03:04:57;5.03;;;2.00;;
81834;SDS011;71272;52.166;4.498;2023-11-21T03:07:22;4.00;;;1.60;;
81834;SDS011;71272;52.166;4.498;2023-11-21T03:09:50;4.68;;;1.83;;
81834;SDS011;71272;52.166;4.498;2023-11-21T03:12:15;5.37;;;1.90;;
81834;SDS011;71272;52.166;4.498;2023-11-21T03:14:41;5.40;;;1.83;;
81834;SDS011;71272;52.166;4.498;2023-11-21T03:17:06;5.03;;;2.10;;
81834;SDS011;71272;52.166;4.498;2023-11-21T03:19:31;6.07;;;1.90;;
81834;SDS011;71272;52.166;4.498;2023-11-21T03:21:56;6.17;;;1.80;;
81834;SDS011;71272;52.166;4.498;2023-11-21T03:24:22;7.37;;;2.10;;
81834;SDS011;71272;52.166;4.498;2023-11-21T03:26:47;4.85;;;1.88;;
81834;SDS011;71272;52.166;4.498;2023-11-21T03:29:13;5.65;;;2.85;;
81834;SDS011;71272;52.166;4.498;2023-11-21T03:31:38;7.10;;;2.37;;
81834;SDS011;71272;52.166;4.498;2023-11-21T03:34:04;7.57;;;2.70;;
81834;SDS011;71272;52.166;4.498;2023-11-21T03:36:29;6.77;;;2.70;;
81834;SDS011;71272;52.166;4.498;2023-11-21T03:38:54;6.80;;;2.60;;
81834;SDS011;71272;52.166;4.498;2023-11-21T03:41:20;9.20;;;2.58;;
81834;SDS011;71272;52.166;4.498;2023-11-21T03:43:45;8.20;;;2.70;;
81834;SDS011;71272;52.166;4.498;2023-11-21T03:46:10;8.83;;;2.97;;
81834;SDS011;71272;52.166;4.498;2023-11-21T03:48:37;10.85;;;3.45;;
81834;SDS011;71272;52.166;4.498;2023-11-21T03:51:02;10.97;;;2.77;;
81834;SDS011;71272;52.166;4.498;2023-11-21T03:53:28;4.38;;;2.00;;
81834;SDS011;71272;52.166;4.498;2023-11-21T03:55:53;5.07;;;2.10;;
81834;SDS011;71272;52.166;4.498;2023-11-21T03:58:18;4.10;;;1.40;;
81834;SDS011;71272;52.166;4.498;2023-11-21T04:00:43;3.40;;;1.27;;
81834;SDS011;71272;52.166;4.498;2023-11-21T04:03:08;6.17;;;1.50;;
81834;SDS011;71272;52.166;4.498;2023-11-21T04:05:33;5.47;;;1.67;;
81834;SDS011;71272;52.166;4.498;2023-11-21T04:07:59;4.57;;;1.40;;
81834;SDS011;71272;52.166;4.498;2023-11-21T04:10:24;8.40;;;1.60;;
81834;SDS011;71272;52.166;4.498;2023-11-21T04:12:49;8.50;;;1.87;;
81834;SDS011;71272;52.166;4.498;2023-11-21T04:15:14;1.97;;;1.10;;
81834;SDS011;71272;52.166;4.498;2023-11-21T04:17:40;5.60;;;1.90;;
81834;SDS011;71272;52.166;4.498;2023-11-21T04:20:06;4.60;;;2.05;;
81834;SDS011;71272;52.166;4.498;2023-11-21T04:22:41;6.88;;;1.77;;
81834;SDS011;71272;52.166;4.498;2023-11-21T04:25:10;8.35;;;2.10;;
81834;SDS011;71272;52.166;4.498;2023-11-21T04:27:36;6.75;;;2.15;;
81834;SDS011;71272;52.166;4.498;2023-11-21T04:30:01;6.47;;;2.22;;
81834;SDS011;71272;52.166;4.498;2023-11-21T04:32:27;3.70;;;1.90;;
81834;SDS011;71272;52.166;4.498;2023-11-21T04:34:52;4.37;;;1.97;;
81834;SDS011;71272;52.166;4.498;2023-11-21T04:37:17;3.50;;;1.53;;
81834;SDS011;71272;52.166;4.498;2023-11-21T04:39:42;4.40;;;1.97;;
81834;SDS011;71272;52.166;4.498;2023-11-21T04:42:07;5.03;;;1.90;;
81834;SDS011;71272;52.166;4.498;2023-11-21T04:44:33;5.37;;;1.70;;
81834;SDS011;71272;52.166;4.498;2023-11-21T04:46:58;4.60;;;1.83;;
81834;SDS011;71272;52.166;4.498;2023-11-21T04:49:23;4.30;;;1.87;;
81834;SDS011;71272;52.166;4.498;2023-11-21T04:54:36;5.38;;;1.85;;
81834;SDS011;71272;52.166;4.498;2023-11-21T04:57:01;3.67;;;2.07;;
81834;SDS011;71272;52.166;4.498;2023-11-21T04:59:26;5.57;;;1.90;;
81834;SDS011;71272;52.166;4.498;2023-11-21T05:01:52;4.15;;;2.17;;
81834;SDS011;71272;52.166;4.498;2023-11-21T05:04:18;4.25;;;2.10;;
81834;SDS011;71272;52.166;4.498;2023-11-21T05:06:43;6.20;;;1.90;;
81834;SDS011;71272;52.166;4.498;2023-11-21T05:09:09;7.80;;;1.93;;
81834;SDS011;71272;52.166;4.498;2023-11-21T05:11:37;7.80;;;2.15;;
81834;SDS011;71272;52.166;4.498;2023-11-21T05:14:02;6.80;;;1.97;;
81834;SDS011;71272;52.166;4.498;2023-11-21T05:16:29;4.82;;;1.73;;
81834;SDS011;71272;52.166;4.498;2023-11-21T05:18:54;5.47;;;1.77;;
81834;SDS011;71272;52.166;4.498;2023-11-21T05:21:23;4.30;;;1.83;;
81834;SDS011;71272;52.166;4.498;2023-11-21T05:23:49;5.30;;;1.73;;
81834;SDS011;71272;52.166;4.498;2023-11-21T05:26:15;4.13;;;1.90;;
81834;SDS011;71272;52.166;4.498;2023-11-21T05:28:40;3.70;;;1.70;;
81834;SDS011;71272;52.166;4.498;2023-11-21T05:31:05;4.07;;;1.87;;
81834;SDS011;71272;52.166;4.498;2023-11-21T05:33:30;5.43;;;1.83;;
81834;SDS011;71272;52.166;4.498;2023-11-21T05:35:55;6.10;;;2.07;;
81834;SDS011;71272;52.166;4.498;2023-11-21T05:38:21;4.10;;;1.70;;
81834;SDS011;71272;52.166;4.498;2023-11-21T05:40:46;3.35;;;1.55;;
81834;SDS011;71272;52.166;4.498;2023-11-21T05:43:12;7.18;;;1.88;;
81834;SDS011;71272;52.166;4.498;2023-11-21T05:45:38;3.40;;;1.63;;
81834;SDS011;71272;52.166;4.498;2023-11-21T05:48:03;4.40;;;1.30;;
81834;SDS011;71272;52.166;4.498;2023-11-21T05:50:29;3.05;;;1.15;;
81834;SDS011;71272;52.166;4.498;2023-11-21T05:52:55;4.13;;;1.30;;
81834;SDS011;71272;52.166;4.498;2023-11-21T05:55:22;4.00;;;1.25;;
81834;SDS011;71272;52.166;4.498;2023-11-21T05:57:50;5.40;;;1.60;;
81834;SDS011;71272;52.166;4.498;2023-11-21T06:00:15;5.57;;;1.43;;
81834;SDS011;71272;52.166;4.498;2023-11-21T06:02:45;3.08;;;1.20;;
81834;SDS011;71272;52.166;4.498;2023-11-21T06:05:10;9.00;;;1.53;;
81834;SDS011;71272;52.166;4.498;2023-11-21T06:07:35;5.50;;;1.60;;
81834;SDS011;71272;52.166;4.498;2023-11-21T06:10:02;4.85;;;1.33;;
81834;SDS011;71272;52.166;4.498;2023-11-21T06:12:30;5.15;;;1.55;;
81834;SDS011;71272;52.166;4.498;2023-11-21T06:14:56;4.07;;;1.30;;
81834;SDS011;71272;52.166;4.498;2023-11-21T06:17:21;5.70;;;1.20;;
81834;SDS011;71272;52.166;4.498;2023-11-21T06:19:46;3.75;;;1.42;;
81834;SDS011;71272;52.166;4.498;2023-11-21T06:22:12;5.47;;;1.50;;
81834;SDS011;71272;52.166;4.498;2023-11-21T06:24:37;7.50;;;1.97;;
81834;SDS011;71272;52.166;4.498;2023-11-21T06:27:05;5.90;;;1.60;;
81834;SDS011;71272;52.166;4.498;2023-11-21T06:29:31;7.00;;;1.80;;
81834;SDS011;71272;52.166;4.498;2023-11-21T06:31:56;6.90;;;2.17;;
81834;SDS011;71272;52.166;4.498;2023-11-21T06:34:22;5.40;;;1.73;;
81834;SDS011;71272;52.166;4.498;2023-11-21T06:36:47;6.73;;;1.60;;
81834;SDS011;71272;52.166;4.498;2023-11-21T06:39:12;6.03;;;1.93;;
81834;SDS011;71272;52.166;4.498;2023-11-21T06:41:40;6.07;;;1.83;;
81834;SDS011;71272;52.166;4.498;2023-11-21T06:44:05;10.07;;;2.47;;
81834;SDS011;71272;52.166;4.498;2023-11-21T06:46:30;8.10;;;2.73;;
81834;SDS011;71272;52.166;4.498;2023-11-21T06:48:55;7.63;;;2.50;;
81834;SDS011;71272;52.166;4.498;2023-11-21T06:51:20;8.13;;;3.37;;
81834;SDS011;71272;52.166;4.498;2023-11-21T06:53:45;8.07;;;3.00;;
81834;SDS011;71272;52.166;4.498;2023-11-21T06:56:17;6.13;;;2.67;;
81834;SDS011;71272;52.166;4.498;2023-11-21T06:58:43;11.77;;;3.28;;
81834;SDS011;71272;52.166;4.498;2023-11-21T07:01:10;7.65;;;3.67;;
81834;SDS011;71272;52.166;4.498;2023-11-21T07:03:35;19.87;;;4.13;;
81834;SDS011;71272;52.166;4.498;2023-11-21T07:06:02;11.10;;;2.90;;
81834;SDS011;71272;52.166;4.498;2023-11-21T07:08:27;7.37;;;3.20;;
81834;SDS011;71272;52.166;4.498;2023-11-21T07:10:52;13.83;;;3.53;;
81834;SDS011;71272;52.166;4.498;2023-11-21T07:13:17;12.60;;;3.03;;
81834;SDS011;71272;52.166;4.498;2023-11-21T07:15:43;7.40;;;2.90;;
81834;SDS011;71272;52.166;4.498;2023-11-21T07:18:08;8.50;;;3.10;;
81834;SDS011;71272;52.166;4.498;2023-11-21T07:20:33;9.37;;;2.80;;
81834;SDS011;71272;52.166;4.498;2023-11-21T07:22:58;11.50;;;2.83;;
81834;SDS011;71272;52.166;4.498;2023-11-21T07:25:25;7.07;;;2.47;;
81834;SDS011;71272;52.166;4.498;2023-11-21T07:27:50;7.80;;;2.60;;
81834;SDS011;71272;52.166;4.498;2023-11-21T07:30:15;8.00;;;2.67;;
81834;SDS011;71272;52.166;4.498;2023-11-21T07:32:40;8.60;;;3.03;;
81834;SDS011;71272;52.166;4.498;2023-11-21T07:35:06;9.68;;;4.05;;
81834;SDS011;71272;52.166;4.498;2023-11-21T07:37:33;11.07;;;4.63;;
81834;SDS011;71272;52.166;4.498;2023-11-21T07:39:58;7.55;;;2.85;;
81834;SDS011;71272;52.166;4.498;2023-11-21T07:42:23;9.65;;;3.28;;
81834;SDS011;71272;52.166;4.498;2023-11-21T07:44:51;9.65;;;3.10;;
81834;SDS011;71272;52.166;4.498;2023-11-21T07:47:17;8.23;;;3.22;;
81834;SDS011;71272;52.166;4.498;2023-11-21T07:49:42;12.57;;;4.33;;
81834;SDS011;71272;52.166;4.498;2023-11-21T07:52:09;13.07;;;3.72;;
81834;SDS011;71272;52.166;4.498;2023-11-21T07:54:34;16.38;;;4.47;;
81834;SDS011;71272;52.166;4.498;2023-11-21T07:57:00;9.15;;;3.83;;
81834;SDS011;71272;52.166;4.498;2023-11-21T07:59:25;6.50;;;3.50;;
81834;SDS011;71272;52.166;4.498;2023-11-21T08:01:51;9.90;;;4.10;;
81834;SDS011;71272;52.166;4.498;2023-11-21T08:04:16;17.27;;;4.50;;
81834;SDS011;71272;52.166;4.498;2023-11-21T08:06:41;13.90;;;3.80;;
81834;SDS011;71272;52.166;4.498;2023-11-21T08:09:06;13.07;;;4.33;;
81834;SDS011;71272;52.166;4.498;2023-11-21T08:11:33;13.77;;;4.30;;
81834;SDS011;71272;52.166;4.498;2023-11-21T08:13:58;12.03;;;5.30;;
81834;SDS011;71272;52.166;4.498;2023-11-21T08:16:24;10.13;;;4.22;;
81834;SDS011;71272;52.166;4.498;2023-11-21T08:18:49;13.63;;;5.00;;
81834;SDS011;71272;52.166;4.498;2023-11-21T08:21:14;9.37;;;3.70;;
81834;SDS011;71272;52.166;4.498;2023-11-21T08:23:39;11.13;;;3.77;;
81834;SDS011;71272;52.166;4.498;2023-11-21T08:26:05;8.47;;;4.53;;
81834;SDS011;71272;52.166;4.498;2023-11-21T08:28:30;8.10;;;3.13;;
81834;SDS011;71272;52.166;4.498;2023-11-21T08:30:55;8.50;;;3.23;;
81834;SDS011;71272;52.166;4.498;2023-11-21T08:33:20;23.60;;;3.90;;
81834;SDS011;71272;52.166;4.498;2023-11-21T08:35:46;6.90;;;3.03;;
81834;SDS011;71272;52.166;4.498;2023-11-21T08:38:11;9.57;;;3.10;;
81834;SDS011;71272;52.166;4.498;2023-11-21T08:40:37;7.75;;;3.15;;
81834;SDS011;71272;52.166;4.498;2023-11-21T08:43:02;5.50;;;2.50;;
81834;SDS011;71272;52.166;4.498;2023-11-21T08:45:29;12.80;;;3.38;;
81834;SDS011;71272;52.166;4.498;2023-11-21T08:47:55;7.75;;;3.05;;
81834;SDS011;71272;52.166;4.498;2023-11-21T08:50:20;9.33;;;3.10;;
81834;SDS011;71272;52.166;4.498;2023-11-21T08:52:45;6.70;;;2.93;;
81834;SDS011;71272;52.166;4.498;2023-11-21T08:55:11;8.02;;;3.42;;
81834;SDS011;71272;52.166;4.498;2023-11-21T08:57:37;9.18;;;4.25;;
81834;SDS011;71272;52.166;4.498;2023-11-21T09:00:03;11.52;;;3.85;;
81834;SDS011;71272;52.166;4.498;2023-11-21T09:02:31;7.03;;;3.67;;
81834;SDS011;71272;52.166;4.498;2023-11-21T09:04:56;6.70;;;3.07;;
81834;SDS011;71272;52.166;4.498;2023-11-21T09:07:22;8.52;;;3.25;;
81834;SDS011;71272;52.166;4.498;2023-11-21T09:09:47;7.43;;;3.67;;
81834;SDS011;71272;52.166;4.498;2023-11-21T09:12:13;10.23;;;4.00;;
81834;SDS011;71272;52.166;4.498;2023-11-21T09:14:39;12.27;;;4.60;;
81834;SDS011;71272;52.166;4.498;2023-11-21T09:17:04;11.00;;;4.32;;
81834;SDS011;71272;52.166;4.498;2023-11-21T09:19:35;9.73;;;3.80;;
81834;SDS011;71272;52.166;4.498;2023-11-21T09:22:00;8.97;;;3.77;;
81834;SDS011;71272;52.166;4.498;2023-11-21T09:24:26;9.17;;;4.40;;
81834;SDS011;71272;52.166;4.498;2023-11-21T09:26:51;9.60;;;4.63;;
81834;SDS011;71272;52.166;4.498;2023-11-21T09:29:16;10.93;;;4.93;;
81834;SDS011;71272;52.166;4.498;2023-11-21T09:31:41;11.33;;;4.77;;
81834;SDS011;71272;52.166;4.498;2023-11-21T09:34:08;8.68;;;4.57;;
81834;SDS011;71272;52.166;4.498;2023-11-21T09:36:34;10.10;;;5.10;;
81834;SDS011;71272;52.166;4.498;2023-11-21T09:38:59;9.10;;;3.97;;
81834;SDS011;71272;52.166;4.498;2023-11-21T09:41:33;10.55;;;4.65;;
81834;SDS011;71272;52.166;4.498;2023-11-21T09:44:00;14.60;;;5.00;;
81834;SDS011;71272;52.166;4.498;2023-11-21T09:46:27;11.30;;;4.97;;
81834;SDS011;71272;52.166;4.498;2023-11-21T09:48:53;8.80;;;4.03;;
81834;SDS011;71272;52.166;4.498;2023-11-21T09:51:19;10.23;;;4.57;;
81834;SDS011;71272;52.166;4.498;2023-11-21T09:53:45;9.00;;;3.95;;
81834;SDS011;71272;52.166;4.498;2023-11-21T09:56:12;12.32;;;4.93;;
81834;SDS011;71272;52.166;4.498;2023-11-21T09:58:38;7.90;;;4.00;;
81834;SDS011;71272;52.166;4.498;2023-11-21T10:01:04;10.50;;;4.43;;
81834;SDS011;71272;52.166;4.498;2023-11-21T10:03:33;7.32;;;3.50;;
81834;SDS011;71272;52.166;4.498;2023-11-21T10:06:00;11.30;;;3.97;;
81834;SDS011;71272;52.166;4.498;2023-11-21T10:08:26;8.73;;;4.05;;
81834;SDS011;71272;52.166;4.498;2023-11-21T10:10:53;7.85;;;3.22;;
81834;SDS011;71272;52.166;4.498;2023-11-21T10:13:19;6.53;;;3.22;;
81834;SDS011;71272;52.166;4.498;2023-11-21T10:15:44;8.63;;;3.70;;
81834;SDS011;71272;52.166;4.498;2023-11-21T10:18:14;10.23;;;3.33;;
81834;SDS011;71272;52.166;4.498;2023-11-21T10:20:40;5.13;;;2.80;;
81834;SDS011;71272;52.166;4.498;2023-11-21T10:23:05;7.18;;;3.47;;
81834;SDS011;71272;52.166;4.498;2023-11-21T10:25:32;8.40;;;3.50;;
81834;SDS011;71272;52.166;4.498;2023-11-21T10:27:58;7.95;;;3.45;;
81834;SDS011;71272;52.166;4.498;2023-11-21T10:30:35;7.78;;;3.60;;
81834;SDS011;71272;52.166;4.498;2023-11-21T10:33:02;6.65;;;3.40;;
81834;SDS011;71272;52.166;4.498;2023-11-21T10:35:48;7.50;;;3.53;;
81834;SDS011;71272;52.166;4.498;2023-11-21T10:38:16;8.85;;;3.22;;
81834;SDS011;71272;52.166;4.498;2023-11-21T10:40:41;7.88;;;3.47;;
81834;SDS011;71272;52.166;4.498;2023-11-21T10:43:07;9.23;;;3.55;;
81834;SDS011;71272;52.166;4.498;2023-11-21T10:45:36;7.78;;;3.80;;
81834;SDS011;71272;52.166;4.498;2023-11-21T10:48:04;9.48;;;5.00;;
81834;SDS011;71272;52.166;4.498;2023-11-21T10:50:30;12.30;;;4.57;;
81834;SDS011;71272;52.166;4.498;2023-11-21T10:52:55;10.87;;;4.50;;
81834;SDS011;71272;52.166;4.498;2023-11-21T10:55:20;11.83;;;4.80;;
81834;SDS011;71272;52.166;4.498;2023-11-21T10:57:52;10.68;;;5.22;;
81834;SDS011;71272;52.166;4.498;2023-11-21T11:00:17;9.02;;;4.72;;
81834;SDS011;71272;52.166;4.498;2023-11-21T11:02:46;10.13;;;5.68;;
81834;SDS011;71272;52.166;4.498;2023-11-21T11:05:14;10.77;;;5.25;;
81834;SDS011;71272;52.166;4.498;2023-11-21T11:07:40;10.48;;;4.85;;
81834;SDS011;71272;52.166;4.498;2023-11-21T11:10:07;14.02;;;5.22;;
81834;SDS011;71272;52.166;4.498;2023-11-21T11:12:33;11.60;;;5.20;;
81834;SDS011;71272;52.166;4.498;2023-11-21T11:15:00;12.00;;;5.78;;
81834;SDS011;71272;52.166;4.498;2023-11-21T11:17:26;12.38;;;5.40;;
81834;SDS011;71272;52.166;4.498;2023-11-21T11:19:51;13.13;;;5.93;;
81834;SDS011;71272;52.166;4.498;2023-11-21T11:32:51;9.98;;;5.45;;
81834;SDS011;71272;52.166;4.498;2023-11-21T11:38:04;11.20;;;5.15;;
81834;SDS011;71272;52.166;4.498;2023-11-21T11:40:45;10.77;;;4.88;;
81834;SDS011;71272;52.166;4.498;2023-11-21T11:43:11;8.35;;;4.70;;
81834;SDS011;71272;52.166;4.498;2023-11-21T11:45:36;9.47;;;4.50;;
81834;SDS011;71272;52.166;4.498;2023-11-21T11:48:06;8.32;;;4.22;;
81834;SDS011;71272;52.166;4.498;2023-11-21T11:50:31;8.90;;;4.67;;
81834;SDS011;71272;52.166;4.498;2023-11-21T11:53:12;9.17;;;5.30;;
81834;SDS011;71272;52.166;4.498;2023-11-21T11:55:38;12.43;;;5.07;;
81834;SDS011;71272;52.166;4.498;2023-11-21T11:58:04;10.23;;;4.97;;
81834;SDS011;71272;52.166;4.498;2023-11-21T12:02:58;8.85;;;4.10;;
81834;SDS011;71272;52.166;4.498;2023-11-21T12:05:27;6.95;;;4.13;;
81834;SDS011;71272;52.166;4.498;2023-11-21T12:07:56;9.65;;;4.93;;
81834;SDS011;71272;52.166;4.498;2023-11-21T12:10:25;8.00;;;4.20;;
81834;SDS011;71272;52.166;4.498;2023-11-21T12:12:52;8.57;;;4.22;;
81834;SDS011;71272;52.166;4.498;2023-11-21T12:15:18;9.77;;;4.30;;
81834;SDS011;71272;52.166;4.498;2023-11-21T12:17:44;9.15;;;3.85;;
81834;SDS011;71272;52.166;4.498;2023-11-21T12:20:10;9.13;;;4.50;;
81834;SDS011;71272;52.166;4.498;2023-11-21T12:22:45;9.38;;;4.20;;
81834;SDS011;71272;52.166;4.498;2023-11-21T12:25:13;7.70;;;4.38;;
81834;SDS011;71272;52.166;4.498;2023-11-21T12:27:41;8.77;;;4.63;;
81834;SDS011;71272;52.166;4.498;2023-11-21T12:30:06;8.50;;;4.50;;
81834;SDS011;71272;52.166;4.498;2023-11-21T12:32:37;8.65;;;4.60;;
81834;SDS011;71272;52.166;4.498;2023-11-21T12:35:02;8.43;;;4.13;;
81834;SDS011;71272;52.166;4.498;2023-11-21T12:37:28;8.75;;;4.75;;
81834;SDS011;71272;52.166;4.498;2023-11-21T12:39:53;8.13;;;4.00;;
81834;SDS011;71272;52.166;4.498;2023-11-21T12:42:22;9.25;;;4.20;;
81834;SDS011;71272;52.166;4.498;2023-11-21T12:45:06;8.15;;;4.15;;
81834;SDS011;71272;52.166;4.498;2023-11-21T12:47:33;7.97;;;3.70;;
81834;SDS011;71272;52.166;4.498;2023-11-21T12:50:00;8.90;;;4.22;;
81834;SDS011;71272;52.166;4.498;2023-11-21T12:52:27;8.63;;;5.10;;
81834;SDS011;71272;52.166;4.498;2023-11-21T12:54:53;8.25;;;4.32;;
81834;SDS011;71272;52.166;4.498;2023-11-21T12:57:18;12.73;;;4.87;;
81834;SDS011;71272;52.166;4.498;2023-11-21T12:59:45;11.02;;;4.30;;
81834;SDS011;71272;52.166;4.498;2023-11-21T13:02:12;8.05;;;4.40;;
81834;SDS011;71272;52.166;4.498;2023-11-21T13:04:39;9.77;;;5.15;;
81834;SDS011;71272;52.166;4.498;2023-11-21T13:07:04;7.10;;;4.10;;
81834;SDS011;71272;52.166;4.498;2023-11-21T13:09:38;10.52;;;5.20;;
81834;SDS011;71272;52.166;4.498;2023-11-21T13:12:03;9.57;;;4.10;;
81834;SDS011;71272;52.166;4.498;2023-11-21T13:14:29;8.70;;;4.47;;
81834;SDS011;71272;52.166;4.498;2023-11-21T13:16:56;9.98;;;4.68;;
81834;SDS011;71272;52.166;4.498;2023-11-21T13:19:22;10.43;;;4.67;;
81834;SDS011;71272;52.166;4.498;2023-11-21T13:21:49;8.48;;;4.30;;
81834;SDS011;71272;52.166;4.498;2023-11-21T13:24:14;8.93;;;4.33;;
81834;SDS011;71272;52.166;4.498;2023-11-21T13:26:39;9.57;;;5.00;;
81834;SDS011;71272;52.166;4.498;2023-11-21T13:29:05;9.00;;;5.22;;
81834;SDS011;71272;52.166;4.498;2023-11-21T13:31:30;9.67;;;3.93;;
81834;SDS011;71272;52.166;4.498;2023-11-21T13:33:57;7.72;;;4.22;;
81834;SDS011;71272;52.166;4.498;2023-11-21T13:36:29;8.05;;;4.13;;
81834;SDS011;71272;52.166;4.498;2023-11-21T13:38:57;8.18;;;4.57;;
81834;SDS011;71272;52.166;4.498;2023-11-21T13:41:23;10.65;;;4.82;;
81834;SDS011;71272;52.166;4.498;2023-11-21T13:43:55;9.73;;;4.35;;
81834;SDS011;71272;52.166;4.498;2023-11-21T13:46:28;9.55;;;4.43;;
81834;SDS011;71272;52.166;4.498;2023-11-21T13:48:53;10.10;;;5.97;;
81834;SDS011;71272;52.166;4.498;2023-11-21T13:53:54;11.38;;;6.55;;
81834;SDS011;71272;52.166;4.498;2023-11-21T13:56:20;10.52;;;5.28;;
81834;SDS011;71272;52.166;4.498;2023-11-21T13:58:49;11.88;;;5.80;;
81834;SDS011;71272;52.166;4.498;2023-11-21T14:01:17;11.88;;;6.32;;
81834;SDS011;71272;52.166;4.498;2023-11-21T14:04:03;11.52;;;5.78;;
81834;SDS011;71272;52.166;4.498;2023-11-21T14:06:40;11.52;;;6.72;;
81834;SDS011;71272;52.166;4.498;2023-11-21T14:09:13;9.60;;;5.25;;
81834;SDS011;71272;52.166;4.498;2023-11-21T14:11:47;11.52;;;6.07;;
81834;SDS011;71272;52.166;4.498;2023-11-21T14:14:12;13.47;;;6.87;;
81834;SDS011;71272;52.166;4.498;2023-11-21T14:16:38;13.45;;;6.78;;
81834;SDS011;71272;52.166;4.498;2023-11-21T14:19:03;13.80;;;6.73;;
81834;SDS011;71272;52.166;4.498;2023-11-21T14:21:40;16.23;;;8.48;;
81834;SDS011;71272;52.166;4.498;2023-11-21T14:24:08;16.67;;;7.60;;
81834;SDS011;71272;52.166;4.498;2023-11-21T14:26:34;18.50;;;8.23;;
81834;SDS011;71272;52.166;4.498;2023-11-21T14:29:00;15.73;;;8.15;;
81834;SDS011;71272;52.166;4.498;2023-11-21T14:31:25;13.60;;;7.47;;
81834;SDS011;71272;52.166;4.498;2023-11-21T14:33:51;13.77;;;7.20;;
81834;SDS011;71272;52.166;4.498;2023-11-21T14:36:16;15.60;;;7.20;;
81834;SDS011;71272;52.166;4.498;2023-11-21T14:38:42;14.15;;;7.40;;
81834;SDS011;71272;52.166;4.498;2023-11-21T14:41:10;12.52;;;6.60;;
81834;SDS011;71272;52.166;4.498;2023-11-21T14:43:36;12.98;;;6.40;;
81834;SDS011;71272;52.166;4.498;2023-11-21T14:46:03;13.77;;;5.85;;
81834;SDS011;71272;52.166;4.498;2023-11-21T14:48:31;12.43;;;6.63;;
81834;SDS011;71272;52.166;4.498;2023-11-21T14:51:12;12.65;;;6.70;;
81834;SDS011;71272;52.166;4.498;2023-11-21T14:53:40;12.45;;;6.60;;
81834;SDS011;71272;52.166;4.498;2023-11-21T14:56:18;14.65;;;6.72;;
81834;SDS011;71272;52.166;4.498;2023-11-21T14:58:51;12.50;;;6.40;;
81834;SDS011;71272;52.166;4.498;2023-11-21T15:01:16;11.47;;;5.60;;
81834;SDS011;71272;52.166;4.498;2023-11-21T15:03:51;11.48;;;6.10;;
81834;SDS011;71272;52.166;4.498;2023-11-21T15:06:17;9.70;;;5.63;;